createdAt,value
2022-11-06T00:00:36.833Z,0.00
2022-11-06T03:14:58.570Z,0.10
2022-11-06T07:03:22.491Z,0.50
2022-11-06T07:05:50.675Z,0.50
2022-11-06T07:08:18.830Z,-0.70
2022-11-06T07:57:07.704Z,0.60
2022-11-06T07:59:36.080Z,3.90
2022-11-06T08:02:04.498Z,4.40
2022-11-06T08:04:39.457Z,4.70
2022-11-06T08:07:08.592Z,4.90
2022-11-06T08:10:31.010Z,5.10
2022-11-06T08:13:29.486Z,5.00
2022-11-06T08:16:59.009Z,5.20
2022-11-06T08:19:29.868Z,5.20
2022-11-06T08:22:02.416Z,5.30
2022-11-06T08:24:38.072Z,5.00
2022-11-06T08:29:43.623Z,4.70
2022-11-06T08:32:15.375Z,4.60
2022-11-06T08:34:44.441Z,4.50
2022-11-06T08:37:12.626Z,5.10
2022-11-06T08:39:40.944Z,5.80
2022-11-06T08:42:09.637Z,6.50
2022-11-06T08:44:39.439Z,6.80
2022-11-06T08:47:10.388Z,6.60
2022-11-06T08:49:41.815Z,5.80
2022-11-06T08:55:14.658Z,5.30
2022-11-06T09:03:39.273Z,5.40
2022-11-06T09:06:10.164Z,5.30
2022-11-06T09:08:42.300Z,5.40
2022-11-06T09:11:15.926Z,5.50
2022-11-06T09:13:49.975Z,5.60
2022-11-06T09:16:27.382Z,5.60
2022-11-06T09:19:25.770Z,5.70
2022-11-06T09:22:13.659Z,5.70
2022-11-06T09:25:02.426Z,5.80
2022-11-06T09:27:52.092Z,5.80
2022-11-06T09:36:32.898Z,6.10
2022-11-06T09:39:10.873Z,6.20
2022-11-06T09:41:51.960Z,6.20
2022-11-06T09:44:39.104Z,6.40
2022-11-06T09:47:21.310Z,6.50
2022-11-06T09:50:07.350Z,6.50
2022-11-06T09:52:44.327Z,6.70
2022-11-06T09:55:32.164Z,6.70
2022-11-06T09:58:05.662Z,6.80
2022-11-06T10:03:15.330Z,6.90
2022-11-06T10:05:45.560Z,7.00
2022-11-06T10:08:18.966Z,7.00
2022-11-06T10:11:01.534Z,7.00
2022-11-06T10:13:45.076Z,7.10
2022-11-06T10:16:53.576Z,7.10
2022-11-06T10:20:06.486Z,7.20
2022-11-06T10:22:40.415Z,7.30
2022-11-06T10:25:22.265Z,7.40
2022-11-06T10:28:02.317Z,7.40
2022-11-06T10:30:43.700Z,7.50
2022-11-06T10:33:59.487Z,7.50
2022-11-06T10:36:33.435Z,7.60
2022-11-06T10:39:06.250Z,7.50
2022-11-06T10:41:39.366Z,7.60
2022-11-06T10:44:16.644Z,7.60
2022-11-06T10:46:51.354Z,7.70
2022-11-06T10:49:29.708Z,7.70
2022-11-06T10:52:15.005Z,7.80
2022-11-06T10:55:17.038Z,7.90
2022-11-06T10:58:27.161Z,8.00
2022-11-06T11:01:03.322Z,8.00
2022-11-06T11:03:34.075Z,8.00
2022-11-06T11:06:08.136Z,8.00
2022-11-06T11:08:42.509Z,8.00
2022-11-06T11:11:53.527Z,8.00
2022-11-06T11:14:28.754Z,8.00
2022-11-06T11:17:00.096Z,8.10
2022-11-06T11:19:55.006Z,8.20
2022-11-06T11:26:27.760Z,8.10
2022-11-06T11:29:01.690Z,8.30
2022-11-06T11:31:56.335Z,8.40
2022-11-06T11:38:49.804Z,8.40
2022-11-06T11:41:38.829Z,8.40
2022-11-06T11:44:22.207Z,8.50
2022-11-06T11:47:23.991Z,8.50
2022-11-06T11:52:23.998Z,8.60
2022-11-06T11:54:55.299Z,8.60
2022-11-06T11:57:27.248Z,8.60
2022-11-06T12:00:00.616Z,8.80
2022-11-06T12:02:39.082Z,8.80
2022-11-06T12:05:13.040Z,8.80
2022-11-06T12:07:47.556Z,8.90
2022-11-06T12:10:28.284Z,9.00
2022-11-06T12:12:58.449Z,9.10
2022-11-06T12:15:30.623Z,9.00
2022-11-06T12:18:04.804Z,9.00
2022-11-06T12:20:44.407Z,9.00
2022-11-06T12:23:27.180Z,8.90
2022-11-06T12:26:03.735Z,8.90
2022-11-06T12:28:34.405Z,8.90
2022-11-06T12:36:51.841Z,8.90
2022-11-06T12:39:27.343Z,8.90
2022-11-06T12:41:59.499Z,8.80
2022-11-06T12:44:37.674Z,8.80
2022-11-06T12:47:35.598Z,8.70
2022-11-06T12:50:23.777Z,8.70
2022-11-06T12:53:28.378Z,8.70
2022-11-06T12:56:07.487Z,8.60
2022-11-06T12:58:53.397Z,8.40
2022-11-06T13:11:15.641Z,7.90
2022-11-06T13:14:08.266Z,7.90
2022-11-06T13:16:46.479Z,7.80
2022-11-06T13:19:28.028Z,7.80
2022-11-06T13:22:21.319Z,7.70
2022-11-06T13:25:15.106Z,7.70
2022-11-06T13:28:28.739Z,7.70
2022-11-06T13:34:46.803Z,7.30
2022-11-06T13:41:06.716Z,7.20
2022-11-06T13:47:35.343Z,7.00
2022-11-06T13:50:35.638Z,6.90
2022-11-06T13:53:20.630Z,6.90
2022-11-06T13:56:04.496Z,6.80
2022-11-06T13:59:12.862Z,6.70
2022-11-06T14:01:55.451Z,6.60
2022-11-06T14:04:42.923Z,6.50
2022-11-06T14:07:26.934Z,6.40
2022-11-06T14:10:13.852Z,6.50
2022-11-06T14:12:52.527Z,6.40
2022-11-06T14:19:26.395Z,6.10
2022-11-06T14:22:22.476Z,6.10
2022-11-06T14:25:03.644Z,6.10
2022-11-06T14:28:25.244Z,5.90
2022-11-06T14:34:09.254Z,5.90
2022-11-06T14:37:03.551Z,5.80
2022-11-06T14:40:20.567Z,5.70
2022-11-06T14:42:56.363Z,5.50
2022-11-06T14:45:35.481Z,5.40
2022-11-06T14:48:09.276Z,5.30
2022-11-06T14:50:41.882Z,5.30
2022-11-06T14:53:34.138Z,5.30
2022-11-06T14:56:17.494Z,5.20
2022-11-06T14:59:13.032Z,5.20
2022-11-06T15:05:16.721Z,5.30
2022-11-06T15:08:23.242Z,5.20
2022-11-06T16:19:27.238Z,3.60
2022-11-06T16:31:14.289Z,3.60
2022-11-06T16:34:19.627Z,3.50
2022-11-06T16:37:12.150Z,3.40
2022-11-06T16:39:56.374Z,3.30
2022-11-06T16:42:40.081Z,3.20
2022-11-06T17:42:14.391Z,3.60
2022-11-06T17:50:52.055Z,3.50
2022-11-06T18:31:58.510Z,3.40
2022-11-06T18:35:05.525Z,3.30
2022-11-06T18:46:08.052Z,3.10
2022-11-06T18:53:33.869Z,3.10
2022-11-06T19:13:14.171Z,3.10
2022-11-06T19:26:04.515Z,3.40
2022-11-06T19:37:55.546Z,3.70
2022-11-06T20:02:57.648Z,3.70
2022-11-06T20:05:40.055Z,3.60
2022-11-06T20:11:27.333Z,3.60
2022-11-06T20:14:56.174Z,3.60
2022-11-06T20:24:52.600Z,3.90
2022-11-06T20:30:43.387Z,4.20
2022-11-06T20:33:28.564Z,4.20
2022-11-06T20:36:15.498Z,4.20
2022-11-06T20:38:51.609Z,4.30
2022-11-06T20:44:45.849Z,4.30
2022-11-06T20:47:23.030Z,4.20
2022-11-06T20:50:09.587Z,4.20
2022-11-06T20:53:45.465Z,4.30
2022-11-06T20:56:26.914Z,4.10
2022-11-06T20:59:16.023Z,4.10
2022-11-06T21:02:02.740Z,4.20
2022-11-06T21:04:37.637Z,4.20
2022-11-06T21:07:15.777Z,4.20
2022-11-06T21:09:59.247Z,4.30
2022-11-06T21:12:49.115Z,4.30
2022-11-06T21:15:23.165Z,4.30
2022-11-06T21:18:15.574Z,4.50
2022-11-06T21:23:19.918Z,6.10
2022-11-06T21:26:05.817Z,4.40
2022-11-06T21:28:41.477Z,4.40
2022-11-06T21:31:23.266Z,4.40
2022-11-06T21:34:11.546Z,4.30
2022-11-06T21:36:46.779Z,4.30
2022-11-06T21:39:20.329Z,4.30
2022-11-06T21:41:51.058Z,4.30
2022-11-06T21:44:26.881Z,4.30
2022-11-06T21:47:01.390Z,4.30
2022-11-06T21:49:31.368Z,4.40
2022-11-06T21:52:18.334Z,4.50
2022-11-06T21:55:13.722Z,4.50
2022-11-06T21:57:55.235Z,4.50
2022-11-06T22:00:23.861Z,4.50
2022-11-06T22:02:54.254Z,4.40
2022-11-06T22:05:23.816Z,4.30
2022-11-06T22:11:16.791Z,4.60
2022-11-06T22:13:52.438Z,4.70
2022-11-06T22:16:29.697Z,4.70
2022-11-06T22:19:01.864Z,4.70
2022-11-06T22:21:34.412Z,4.70
2022-11-06T22:27:06.023Z,4.70
2022-11-06T22:29:49.065Z,4.90
2022-11-06T22:33:05.923Z,5.00
2022-11-06T22:39:19.704Z,4.90
2022-11-06T22:42:13.183Z,4.90
2022-11-06T22:44:50.478Z,4.90
2022-11-06T22:50:13.398Z,4.90
2022-11-06T22:53:15.628Z,4.90
2022-11-06T22:55:48.851Z,4.90
2022-11-06T22:58:29.448Z,4.90
2022-11-06T23:01:44.981Z,4.90
2022-11-06T23:05:24.810Z,5.00
2022-11-06T23:08:48.011Z,4.90
2022-11-06T23:20:14.266Z,4.90
2022-11-06T23:22:55.683Z,5.00
2022-11-06T23:25:27.994Z,3.40
2022-11-06T23:28:03.103Z,4.80
2022-11-06T23:33:37.396Z,4.80
2022-11-06T23:36:54.971Z,4.90
2022-11-06T23:40:19.031Z,4.90
2022-11-06T23:48:08.637Z,5.10
2022-11-06T23:51:51.836Z,5.00
2022-11-06T23:54:49.133Z,5.00
